Time;durP1;ratioP1;P1;durP2;ratioP2;P2;SDS_P1;SDS_P2;PMS_P1;PMS_P2;Temp;Humidity;BMP_temperature;BMP_pressure;BME280_temperature;BME280_humidity;BME280_pressure;Samples;Min_cycle;Max_cycle;Signal;HPM_P1;HPM_P2
2023/12/27 00:02:10;;;;;;;1.30;1.30;;;;;;;;;;5012423;28;20215;-87
2023/12/27 00:04:39;;;;;;;1.10;1.10;;;;;;;;;;5029332;28;20196;-87
2023/12/27 00:07:08;;;;;;;2.33;2.23;;;;;;;;;;5029707;28;20243;-87
2023/12/27 00:09:39;;;;;;;1.90;1.83;;;;;;;;;;5014131;28;20269;-87
2023/12/27 00:12:08;;;;;;;1.03;1.03;;;;;;;;;;5012335;28;20300;-86
2023/12/27 00:14:36;;;;;;;0.80;0.80;;;;;;;;;;5012435;28;20239;-86
2023/12/27 00:17:05;;;;;;;1.43;1.40;;;;;;;;;;5012948;28;20229;-86
2023/12/27 00:19:33;;;;;;;1.00;1.00;;;;;;;;;;5013280;28;20553;-86
2023/12/27 00:22:04;;;;;;;0.90;0.90;;;;;;;;;;5013267;28;20204;-86
2023/12/27 00:24:33;;;;;;;2.93;2.83;;;;;;;;;;5012899;28;20200;-86
2023/12/27 00:27:03;;;;;;;0.80;0.80;;;;;;;;;;5012865;28;20203;-86
2023/12/27 00:29:32;;;;;;;0.70;0.70;;;;;;;;;;5013220;28;20204;-86
2023/12/27 00:32:00;;;;;;;1.47;1.10;;;;;;;;;;5013207;28;20236;-86
2023/12/27 00:34:29;;;;;;;0.90;0.90;;;;;;;;;;5012250;28;20204;-86
2023/12/27 00:36:57;;;;;;;0.80;0.80;;;;;;;;;;5012501;28;20283;-86
2023/12/27 00:39:26;;;;;;;0.80;0.80;;;;;;;;;;5012280;28;20210;-86
2023/12/27 00:41:54;;;;;;;0.90;0.90;;;;;;;;;;5011937;28;20210;-86
2023/12/27 00:44:24;;;;;;;2.17;1.93;;;;;;;;;;5013547;28;20204;-86
2023/12/27 00:46:53;;;;;;;1.90;1.90;;;;;;;;;;5013553;28;20195;-86
2023/12/27 00:49:21;;;;;;;1.13;1.13;;;;;;;;;;5012285;28;20290;-86
2023/12/27 00:51:50;;;;;;;1.20;1.20;;;;;;;;;;5012887;28;20196;-86
2023/12/27 00:54:19;;;;;;;4.23;4.00;;;;;;;;;;5028855;28;20219;-86
2023/12/27 00:56:49;;;;;;;1.70;1.60;;;;;;;;;;5028833;28;20293;-86
2023/12/27 00:59:17;;;;;;;1.33;1.33;;;;;;;;;;5013660;28;20223;-86
2023/12/27 01:01:47;;;;;;;1.93;1.83;;;;;;;;;;5011848;28;20231;-86
2023/12/27 01:04:16;;;;;;;1.57;1.57;;;;;;;;;;5011494;28;20219;-86
2023/12/27 01:06:44;;;;;;;1.97;1.87;;;;;;;;;;5011902;28;20220;-86
2023/12/27 01:09:13;;;;;;;0.80;0.80;;;;;;;;;;5013147;28;20226;-86
2023/12/27 01:11:41;;;;;;;3.53;3.33;;;;;;;;;;5028081;28;20203;-86
2023/12/27 01:14:10;;;;;;;0.80;0.80;;;;;;;;;;5011383;28;20334;-86
2023/12/27 01:16:38;;;;;;;3.53;2.33;;;;;;;;;;5011938;28;20281;-86
2023/12/27 01:19:08;;;;;;;0.80;0.80;;;;;;;;;;5011687;28;20191;-86
2023/12/27 01:21:37;;;;;;;0.80;0.80;;;;;;;;;;5011585;28;20204;-86
2023/12/27 01:24:06;;;;;;;1.00;1.00;;;;;;;;;;5011152;28;20214;-86
2023/12/27 01:26:34;;;;;;;1.10;1.10;;;;;;;;;;5010917;28;20188;-86
2023/12/27 01:29:03;;;;;;;3.70;2.03;;;;;;;;;;5028386;28;20199;-86
2023/12/27 01:31:31;;;;;;;2.00;1.90;;;;;;;;;;5012468;28;20221;-86
2023/12/27 01:34:00;;;;;;;1.27;1.27;;;;;;;;;;5011370;28;20206;-86
2023/12/27 01:36:41;;;;;;;1.73;1.73;;;;;;;;;;5028060;28;20238;-86
2023/12/27 01:39:10;;;;;;;2.80;2.63;;;;;;;;;;5011764;28;20263;-86
2023/12/27 01:41:38;;;;;;;1.77;1.77;;;;;;;;;;5011405;28;20202;-86
2023/12/27 01:44:07;;;;;;;0.87;0.87;;;;;;;;;;5012092;28;20202;-86
2023/12/27 01:46:35;;;;;;;1.30;1.30;;;;;;;;;;5011454;28;20210;-86
2023/12/27 01:49:03;;;;;;;0.90;0.90;;;;;;;;;;5011930;28;20207;-86
2023/12/27 01:51:32;;;;;;;1.27;1.27;;;;;;;;;;5011661;28;20203;-86
2023/12/27 01:54:02;;;;;;;2.43;2.23;;;;;;;;;;5010455;28;20207;-86
2023/12/27 01:56:31;;;;;;;1.93;1.83;;;;;;;;;;5011011;28;20302;-86
2023/12/27 01:59:00;;;;;;;10.67;6.60;;;;;;;;;;5011229;28;20303;-86
2023/12/27 02:01:29;;;;;;;10.80;5.23;;;;;;;;;;5027354;28;20192;-86
2023/12/27 02:03:58;;;;;;;15.60;8.83;;;;;;;;;;5010528;28;20207;-86
2023/12/27 02:06:27;;;;;;;1.07;1.07;;;;;;;;;;5010927;28;20221;-86
2023/12/27 02:08:56;;;;;;;0.80;0.80;;;;;;;;;;5028106;28;20199;-86
2023/12/27 02:11:26;;;;;;;0.87;0.87;;;;;;;;;;5012266;28;20206;-86
2023/12/27 02:13:54;;;;;;;1.73;1.63;;;;;;;;;;5010736;28;20263;-86
2023/12/27 02:16:23;;;;;;;2.30;2.10;;;;;;;;;;5011815;28;20195;-86
2023/12/27 02:18:52;;;;;;;14.03;7.00;;;;;;;;;;5011821;28;20258;-86
2023/12/27 02:21:21;;;;;;;11.23;5.13;;;;;;;;;;5010857;28;20200;-86
2023/12/27 02:23:52;;;;;;;13.90;7.03;;;;;;;;;;5011579;28;20222;-86
2023/12/27 02:26:22;;;;;;;1.70;1.60;;;;;;;;;;5010368;28;20211;-86
2023/12/27 02:28:51;;;;;;;2.33;2.23;;;;;;;;;;5011137;28;20223;-86
2023/12/27 02:31:19;;;;;;;0.73;0.73;;;;;;;;;;5027203;28;20204;-86
2023/12/27 02:33:48;;;;;;;16.33;1.83;;;;;;;;;;5010660;28;20196;-86
2023/12/27 02:36:17;;;;;;;2.13;2.03;;;;;;;;;;5027025;28;20207;-86
2023/12/27 02:38:45;;;;;;;3.60;2.90;;;;;;;;;;5013199;28;20243;-86
2023/12/27 02:41:14;;;;;;;1.50;1.50;;;;;;;;;;5016123;28;20203;-86
2023/12/27 02:43:44;;;;;;;0.77;0.77;;;;;;;;;;5031214;28;20199;-86
2023/12/27 02:46:12;;;;;;;1.43;1.43;;;;;;;;;;5014475;28;20290;-86
2023/12/27 02:48:41;;;;;;;11.37;2.83;;;;;;;;;;5031206;28;20282;-86
2023/12/27 02:51:09;;;;;;;0.80;0.80;;;;;;;;;;5015031;28;20238;-86
2023/12/27 02:53:38;;;;;;;3.40;3.13;;;;;;;;;;5015652;28;20286;-85
2023/12/27 02:56:07;;;;;;;1.03;1.03;;;;;;;;;;5030579;28;20213;-86
2023/12/27 02:58:35;;;;;;;5.17;4.93;;;;;;;;;;5014152;28;20242;-86
2023/12/27 03:01:05;;;;;;;1.63;1.63;;;;;;;;;;5031214;28;20254;-86
2023/12/27 03:03:34;;;;;;;0.70;0.70;;;;;;;;;;5030715;28;20214;-86
2023/12/27 03:06:03;;;;;;;0.70;0.70;;;;;;;;;;5014107;28;20224;-86
2023/12/27 03:08:33;;;;;;;1.20;1.20;;;;;;;;;;5013954;28;20231;-86
2023/12/27 03:11:01;;;;;;;1.27;0.97;;;;;;;;;;5015359;28;20202;-86
2023/12/27 03:13:30;;;;;;;0.70;0.70;;;;;;;;;;5013946;28;20243;-86
2023/12/27 03:15:58;;;;;;;1.33;1.33;;;;;;;;;;5013531;28;20208;-86
2023/12/27 03:18:28;;;;;;;0.93;0.93;;;;;;;;;;5013720;28;20278;-86
2023/12/27 03:21:00;;;;;;;1.13;1.13;;;;;;;;;;5014449;28;20195;-86
2023/12/27 03:23:29;;;;;;;1.80;1.70;;;;;;;;;;5014071;28;20200;-86
2023/12/27 03:25:57;;;;;;;2.13;2.00;;;;;;;;;;5013727;28;20267;-86
2023/12/27 03:28:26;;;;;;;1.10;1.10;;;;;;;;;;5029840;28;20282;-86
2023/12/27 03:30:54;;;;;;;0.80;0.80;;;;;;;;;;5014009;28;20208;-86
2023/12/27 03:33:25;;;;;;;2.57;1.30;;;;;;;;;;5013712;28;20199;-86
2023/12/27 03:35:55;;;;;;;1.10;1.10;;;;;;;;;;5013556;28;20196;-86
2023/12/27 03:38:24;;;;;;;1.43;1.43;;;;;;;;;;5014480;28;20375;-86
2023/12/27 03:40:52;;;;;;;0.70;0.70;;;;;;;;;;5014042;28;20200;-86
2023/12/27 03:43:21;;;;;;;1.97;1.90;;;;;;;;;;5030431;28;20195;-86
2023/12/27 03:45:50;;;;;;;0.80;0.80;;;;;;;;;;5013309;28;20203;-86
2023/12/27 03:48:19;;;;;;;0.73;0.73;;;;;;;;;;5013461;28;20208;-86
2023/12/27 03:50:48;;;;;;;0.87;0.87;;;;;;;;;;5012496;28;20214;-86
2023/12/27 03:53:18;;;;;;;2.00;1.37;;;;;;;;;;5013480;28;20212;-86
2023/12/27 03:55:47;;;;;;;2.97;2.07;;;;;;;;;;5013469;28;20291;-86
2023/12/27 03:58:14;;;;;;;1.80;1.70;;;;;;;;;;5012836;28;20224;-86
2023/12/27 04:00:43;;;;;;;0.70;0.70;;;;;;;;;;5029579;28;20200;-86
2023/12/27 04:03:11;;;;;;;0.90;0.90;;;;;;;;;;5013257;28;20204;-86
2023/12/27 04:05:40;;;;;;;1.20;1.20;;;;;;;;;;5013338;28;20219;-86
2023/12/27 04:08:09;;;;;;;2.33;2.23;;;;;;;;;;5014055;28;20219;-86
2023/12/27 04:10:39;;;;;;;1.10;1.10;;;;;;;;;;5012959;28;20203;-86
2023/12/27 04:13:09;;;;;;;2.10;1.73;;;;;;;;;;5013009;28;20237;-86
2023/12/27 04:15:38;;;;;;;1.20;1.20;;;;;;;;;;5014222;28;20196;-86
2023/12/27 04:18:07;;;;;;;2.10;2.00;;;;;;;;;;5012347;28;20226;-86
2023/12/27 04:20:36;;;;;;;1.20;1.20;;;;;;;;;;5029254;28;20207;-86
2023/12/27 04:23:04;;;;;;;2.90;2.70;;;;;;;;;;5012814;28;20254;-86
2023/12/27 04:25:33;;;;;;;4.80;3.30;;;;;;;;;;5012735;28;20200;-86
2023/12/27 04:28:03;;;;;;;5.43;3.50;;;;;;;;;;5012483;28;20298;-86
2023/12/27 04:30:31;;;;;;;9.30;5.57;;;;;;;;;;5013401;28;20192;-86
2023/12/27 04:33:00;;;;;;;6.47;4.17;;;;;;;;;;5013932;28;20199;-86
2023/12/27 04:35:29;;;;;;;5.63;4.23;;;;;;;;;;5013701;28;20238;-86
2023/12/27 04:37:57;;;;;;;26.47;6.43;;;;;;;;;;5012356;28;20215;-86
2023/12/27 04:40:26;;;;;;;11.90;5.77;;;;;;;;;;5028663;28;20271;-86
2023/12/27 04:42:55;;;;;;;10.70;6.83;;;;;;;;;;5013922;28;20295;-86
2023/12/27 04:45:25;;;;;;;4.60;3.67;;;;;;;;;;5012603;28;20203;-86
2023/12/27 04:47:53;;;;;;;5.17;4.67;;;;;;;;;;5012475;28;20196;-86
2023/12/27 04:50:22;;;;;;;4.80;3.93;;;;;;;;;;5011905;28;20207;-86
2023/12/27 04:52:51;;;;;;;10.53;5.60;;;;;;;;;;5012081;28;20294;-86
2023/12/27 04:55:20;;;;;;;12.63;4.97;;;;;;;;;;5011916;28;20294;-86
2023/12/27 04:57:48;;;;;;;5.80;3.80;;;;;;;;;;5012403;28;20207;-87
2023/12/27 05:00:17;;;;;;;3.47;2.97;;;;;;;;;;5027954;28;20279;-87
2023/12/27 05:02:47;;;;;;;13.20;4.67;;;;;;;;;;5010921;28;20207;-87
2023/12/27 05:05:15;;;;;;;3.97;3.60;;;;;;;;;;5012393;28;20254;-87
2023/12/27 05:07:44;;;;;;;6.30;3.23;;;;;;;;;;5013167;28;20203;-87
2023/12/27 05:10:12;;;;;;;11.07;3.83;;;;;;;;;;5011413;28;20261;-87
2023/12/27 05:12:41;;;;;;;5.90;4.33;;;;;;;;;;5011695;28;20235;-87
2023/12/27 05:15:10;;;;;;;6.37;3.90;;;;;;;;;;5011717;28;20200;-87
2023/12/27 05:17:39;;;;;;;4.60;3.47;;;;;;;;;;5012243;28;20212;-87
2023/12/27 05:20:09;;;;;;;3.63;2.97;;;;;;;;;;5012328;28;20215;-87
2023/12/27 05:22:39;;;;;;;2.27;2.17;;;;;;;;;;5011479;28;20298;-87
2023/12/27 05:25:08;;;;;;;3.37;3.07;;;;;;;;;;5011532;28;20199;-87
2023/12/27 05:27:37;;;;;;;5.87;4.47;;;;;;;;;;5011785;28;20200;-87
2023/12/27 05:30:08;;;;;;;4.93;3.90;;;;;;;;;;5011376;28;20520;-87
2023/12/27 05:32:37;;;;;;;2.37;2.20;;;;;;;;;;5011110;28;20227;-87
2023/12/27 05:35:06;;;;;;;7.13;4.87;;;;;;;;;;5011645;28;20207;-87
2023/12/27 05:37:36;;;;;;;8.30;6.00;;;;;;;;;;5028282;28;20203;-87
2023/12/27 05:40:07;;;;;;;8.10;5.60;;;;;;;;;;5011033;28;20223;-87
2023/12/27 05:42:36;;;;;;;5.83;3.87;;;;;;;;;;5010657;28;20195;-87
2023/12/27 05:45:05;;;;;;;19.70;5.97;;;;;;;;;;5011718;28;20196;-87
2023/12/27 05:47:33;;;;;;;10.03;5.50;;;;;;;;;;5011491;28;20196;-87
2023/12/27 05:50:02;;;;;;;14.83;6.03;;;;;;;;;;5011327;28;20253;-87
2023/12/27 05:52:31;;;;;;;7.87;4.83;;;;;;;;;;5012129;28;20191;-87
2023/12/27 05:55:01;;;;;;;13.10;7.40;;;;;;;;;;5012280;28;20195;-87
2023/12/27 05:57:29;;;;;;;18.27;6.70;;;;;;;;;;5011245;28;20290;-87
2023/12/27 05:59:58;;;;;;;10.70;6.37;;;;;;;;;;5010970;28;20269;-87
2023/12/27 06:02:26;;;;;;;8.63;5.47;;;;;;;;;;5010985;28;20398;-87
2023/12/27 06:04:56;;;;;;;7.33;5.50;;;;;;;;;;5011028;28;20230;-87
2023/12/27 06:07:25;;;;;;;6.33;4.57;;;;;;;;;;5027517;28;20199;-87
2023/12/27 06:09:53;;;;;;;5.40;4.80;;;;;;;;;;5010930;28;20204;-87
2023/12/27 06:12:23;;;;;;;13.07;4.80;;;;;;;;;;5010079;28;20203;-87
2023/12/27 06:14:52;;;;;;;10.80;6.23;;;;;;;;;;5010780;28;20281;-87
2023/12/27 06:17:20;;;;;;;2.87;2.67;;;;;;;;;;5011324;28;20319;-87
2023/12/27 06:19:49;;;;;;;10.13;5.30;;;;;;;;;;5011966;28;20207;-87
2023/12/27 06:22:17;;;;;;;7.50;4.90;;;;;;;;;;5010934;28;20227;-87
2023/12/27 06:24:49;;;;;;;7.47;4.53;;;;;;;;;;5009070;28;20206;-87
2023/12/27 06:27:18;;;;;;;6.40;3.27;;;;;;;;;;5026244;28;20202;-87
2023/12/27 06:29:50;;;;;;;6.23;4.07;;;;;;;;;;5015354;28;20191;-87
2023/12/27 06:32:22;;;;;;;5.00;4.37;;;;;;;;;;5010153;28;20263;-87
2023/12/27 06:34:51;;;;;;;9.80;5.40;;;;;;;;;;5010561;28;20196;-87
2023/12/27 06:37:19;;;;;;;11.60;6.47;;;;;;;;;;5010959;28;20207;-87
2023/12/27 06:39:48;;;;;;;18.97;8.30;;;;;;;;;;5012024;28;20251;-87
2023/12/27 06:42:16;;;;;;;14.50;7.50;;;;;;;;;;5016866;28;20298;-87
2023/12/27 06:44:45;;;;;;;12.80;6.90;;;;;;;;;;5028318;28;20246;-87
2023/12/27 06:47:15;;;;;;;16.17;8.47;;;;;;;;;;5009447;28;20200;-87
2023/12/27 06:49:47;;;;;;;7.43;4.70;;;;;;;;;;5010604;28;20204;-87
2023/12/27 06:52:16;;;;;;;10.27;5.97;;;;;;;;;;5008843;28;20232;-87
2023/12/27 06:54:44;;;;;;;7.77;3.47;;;;;;;;;;5009112;28;20207;-87
2023/12/27 06:57:16;;;;;;;15.87;6.43;;;;;;;;;;5010048;28;20242;-89
2023/12/27 06:59:50;;;;;;;5.63;3.63;;;;;;;;;;5010680;28;20226;-88
2023/12/27 07:02:21;;;;;;;8.60;4.67;;;;;;;;;;5011181;28;20204;-88
2023/12/27 07:05:00;;;;;;;10.10;4.70;;;;;;;;;;5011900;28;20192;-89
2023/12/27 07:07:38;;;;;;;8.17;4.60;;;;;;;;;;5009015;28;20262;-88
2023/12/27 07:10:09;;;;;;;2.90;2.47;;;;;;;;;;5010882;28;20197;-88
2023/12/27 07:12:41;;;;;;;2.83;2.63;;;;;;;;;;5009732;28;20239;-89
2023/12/27 07:15:17;;;;;;;7.03;3.47;;;;;;;;;;5009971;28;20234;-88
2023/12/27 07:17:50;;;;;;;8.60;4.60;;;;;;;;;;4991068;28;20227;-89
2023/12/27 07:20:30;;;;;;;12.80;5.47;;;;;;;;;;5000112;28;20222;-87
2023/12/27 07:22:58;;;;;;;9.13;3.97;;;;;;;;;;5009148;28;20192;-88
2023/12/27 07:25:27;;;;;;;5.67;5.17;;;;;;;;;;5011445;28;20211;-89
2023/12/27 07:27:55;;;;;;;12.43;6.67;;;;;;;;;;5014253;28;20281;-88
2023/12/27 07:30:25;;;;;;;9.03;5.93;;;;;;;;;;5012314;28;20203;-89
2023/12/27 07:32:55;;;;;;;2.63;2.43;;;;;;;;;;5010551;28;20207;-89
2023/12/27 07:35:25;;;;;;;12.90;5.50;;;;;;;;;;5016598;28;20212;-89
2023/12/27 07:37:54;;;;;;;7.30;4.67;;;;;;;;;;5013050;28;20215;-88
2023/12/27 07:40:23;;;;;;;10.40;4.20;;;;;;;;;;5012005;28;20215;-88
2023/12/27 07:42:51;;;;;;;8.60;6.03;;;;;;;;;;5012227;28;20222;-87
2023/12/27 07:45:22;;;;;;;8.50;5.67;;;;;;;;;;5011641;28;20269;-87
2023/12/27 07:47:53;;;;;;;7.00;5.10;;;;;;;;;;5006236;28;20203;-87
2023/12/27 07:50:23;;;;;;;8.13;4.33;;;;;;;;;;5009566;28;20192;-87
2023/12/27 07:52:52;;;;;;;8.13;3.63;;;;;;;;;;5014273;28;20202;-88
2023/12/27 07:55:21;;;;;;;11.00;5.60;;;;;;;;;;5011635;28;20234;-87
2023/12/27 07:57:57;;;;;;;14.20;4.87;;;;;;;;;;5013747;28;20222;-88
2023/12/27 08:00:26;;;;;;;11.80;6.27;;;;;;;;;;5007291;28;20307;-88
2023/12/27 08:03:08;;;;;;;11.30;5.43;;;;;;;;;;5010330;28;20200;-87
2023/12/27 08:05:39;;;;;;;8.13;4.53;;;;;;;;;;5034877;28;20242;-87
2023/12/27 08:08:09;;;;;;;12.13;6.07;;;;;;;;;;5019846;28;20194;-86
2023/12/27 08:10:38;;;;;;;9.13;4.87;;;;;;;;;;5014558;28;20203;-87
2023/12/27 08:13:10;;;;;;;11.57;6.03;;;;;;;;;;5012917;28;20326;-87
2023/12/27 08:15:42;;;;;;;13.73;8.70;;;;;;;;;;5013324;28;20203;-88
2023/12/27 08:18:20;;;;;;;14.30;6.53;;;;;;;;;;5012982;28;20210;-88
2023/12/27 08:21:15;;;;;;;15.93;8.70;;;;;;;;;;5013249;28;20227;-87
2023/12/27 08:23:49;;;;;;;11.30;6.47;;;;;;;;;;5013030;28;20289;-86
2023/12/27 08:26:17;;;;;;;15.80;7.70;;;;;;;;;;5013832;28;20196;-87
2023/12/27 08:28:46;;;;;;;19.93;9.37;;;;;;;;;;5014330;28;20435;-88
2023/12/27 08:31:24;;;;;;;4.33;3.43;;;;;;;;;;5013209;28;20200;-87
2023/12/27 08:33:53;;;;;;;17.10;7.97;;;;;;;;;;5014056;28;20203;-87
2023/12/27 08:36:45;;;;;;;12.43;9.20;;;;;;;;;;5012259;28;20284;-87
2023/12/27 08:39:29;;;;;;;13.00;7.93;;;;;;;;;;5012818;28;20298;-87
2023/12/27 08:42:02;;;;;;;13.63;7.67;;;;;;;;;;5014528;28;20288;-86
2023/12/27 08:44:34;;;;;;;8.93;6.60;;;;;;;;;;5011583;28;20204;-87
2023/12/27 08:47:03;;;;;;;8.37;5.80;;;;;;;;;;5011444;28;20204;-87
2023/12/27 08:49:31;;;;;;;12.13;7.80;;;;;;;;;;5012311;28;20282;-86
2023/12/27 08:52:00;;;;;;;8.70;6.53;;;;;;;;;;5013506;28;20199;-87
2023/12/27 08:54:30;;;;;;;12.23;7.80;;;;;;;;;;5012838;28;20195;-87
2023/12/27 08:57:18;;;;;;;12.50;7.90;;;;;;;;;;5013531;28;20368;-87
2023/12/27 08:59:48;;;;;;;9.07;5.50;;;;;;;;;;5013762;28;20215;-87
2023/12/27 09:02:17;;;;;;;14.17;8.33;;;;;;;;;;5012677;28;20215;-87
2023/12/27 09:05:04;;;;;;;8.40;5.73;;;;;;;;;;5013803;28;20194;-88
2023/12/27 09:07:52;;;;;;;9.90;5.47;;;;;;;;;;5013109;28;20263;-87
2023/12/27 09:10:44;;;;;;;9.53;6.03;;;;;;;;;;5014087;28;20206;-88
2023/12/27 09:13:33;;;;;;;9.43;5.27;;;;;;;;;;5013885;28;20231;-86
2023/12/27 09:16:24;;;;;;;6.13;3.60;;;;;;;;;;5012393;28;20213;-88
2023/12/27 09:19:22;;;;;;;4.70;3.40;;;;;;;;;;5012565;28;20200;-87
2023/12/27 09:22:13;;;;;;;10.93;5.77;;;;;;;;;;5013717;28;20275;-87
2023/12/27 09:25:11;;;;;;;2.43;2.33;;;;;;;;;;5013953;28;20242;-86
2023/12/27 09:28:05;;;;;;;3.63;3.43;;;;;;;;;;5013828;28;20196;-87
2023/12/27 09:30:54;;;;;;;8.43;4.10;;;;;;;;;;5013784;28;20189;-87
2023/12/27 09:33:45;;;;;;;1.63;1.53;;;;;;;;;;5013852;28;20210;-87
2023/12/27 09:36:35;;;;;;;3.50;2.80;;;;;;;;;;5013272;28;20211;-88
2023/12/27 09:39:30;;;;;;;10.07;6.30;;;;;;;;;;5012643;28;20192;-86
2023/12/27 09:42:19;;;;;;;8.43;6.27;;;;;;;;;;5013805;28;20223;-87
2023/12/27 09:45:12;;;;;;;5.23;4.73;;;;;;;;;;5013777;28;20203;-87
2023/12/27 09:48:08;;;;;;;7.23;6.20;;;;;;;;;;5012509;28;20204;-87
2023/12/27 09:51:07;;;;;;;8.37;6.23;;;;;;;;;;5013310;28;20210;-87
2023/12/27 09:53:56;;;;;;;1.63;1.53;;;;;;;;;;5013305;28;20196;-88
2023/12/27 09:56:45;;;;;;;15.87;11.20;;;;;;;;;;5013033;28;20200;-88
2023/12/27 09:59:40;;;;;;;4.60;4.03;;;;;;;;;;5012181;28;20188;-87
2023/12/27 10:02:31;;;;;;;9.27;7.37;;;;;;;;;;5012254;28;20216;-88
2023/12/27 10:05:22;;;;;;;10.60;8.40;;;;;;;;;;5013487;28;20233;-87
2023/12/27 10:08:12;;;;;;;14.73;10.60;;;;;;;;;;5012756;28;20240;-86
2023/12/27 10:11:04;;;;;;;7.13;5.23;;;;;;;;;;5012912;28;20196;-87
2023/12/27 10:14:04;;;;;;;18.97;15.80;;;;;;;;;;5012750;28;20228;-88
2023/12/27 10:16:58;;;;;;;19.67;14.37;;;;;;;;;;5010848;28;20218;-87
2023/12/27 10:19:56;;;;;;;18.37;16.53;;;;;;;;;;5012464;28;20196;-87
2023/12/27 10:22:45;;;;;;;18.80;15.00;;;;;;;;;;5012687;28;20231;-88
2023/12/27 10:25:40;;;;;;;8.10;7.23;;;;;;;;;;5013084;28;20203;-87
2023/12/27 10:28:35;;;;;;;14.30;9.90;;;;;;;;;;5012559;28;20199;-87
2023/12/27 10:31:25;;;;;;;19.63;14.57;;;;;;;;;;5012867;28;20200;-88
2023/12/27 10:34:18;;;;;;;11.13;8.70;;;;;;;;;;5013098;28;20200;-87
2023/12/27 10:37:19;;;;;;;19.20;13.93;;;;;;;;;;5013170;28;20259;-86
2023/12/27 10:40:08;;;;;;;12.10;8.43;;;;;;;;;;5010293;28;20282;-86
2023/12/27 10:43:01;;;;;;;22.07;18.93;;;;;;;;;;5012489;28;20290;-87
2023/12/27 10:45:55;;;;;;;21.83;15.50;;;;;;;;;;5012816;28;20212;-86
2023/12/27 10:48:46;;;;;;;17.50;12.50;;;;;;;;;;5011770;28;20200;-87
2023/12/27 10:51:40;;;;;;;32.77;23.00;;;;;;;;;;5012194;28;20203;-87
2023/12/27 10:54:38;;;;;;;33.80;26.00;;;;;;;;;;5012605;28;20200;-87
2023/12/27 10:57:34;;;;;;;35.37;29.30;;;;;;;;;;5012212;28;20250;-87
2023/12/27 11:00:23;;;;;;;37.83;28.33;;;;;;;;;;5013647;28;20336;-87
2023/12/27 11:03:15;;;;;;;20.37;14.57;;;;;;;;;;5015924;28;20226;-87
2023/12/27 11:06:10;;;;;;;37.40;33.37;;;;;;;;;;5015843;28;20262;-86
2023/12/27 11:09:06;;;;;;;38.20;28.67;;;;;;;;;;5015574;28;20340;-88
2023/12/27 11:12:01;;;;;;;37.90;27.60;;;;;;;;;;5016116;28;20200;-86
2023/12/27 11:14:50;;;;;;;36.83;30.43;;;;;;;;;;5014456;28;20241;-87
2023/12/27 11:17:42;;;;;;;39.97;32.80;;;;;;;;;;5016305;28;20208;-87
2023/12/27 11:20:32;;;;;;;31.60;24.43;;;;;;;;;;5016107;28;20202;-88
2023/12/27 11:23:21;;;;;;;32.43;22.37;;;;;;;;;;5015923;28;20325;-86
2023/12/27 11:26:11;;;;;;;41.07;35.97;;;;;;;;;;5015132;28;20277;-87
2023/12/27 11:29:05;;;;;;;42.67;27.83;;;;;;;;;;5016000;28;20199;-87
2023/12/27 11:31:58;;;;;;;43.20;34.10;;;;;;;;;;5014892;28;20249;-87
2023/12/27 11:35:00;;;;;;;36.17;25.70;;;;;;;;;;5016650;28;20194;-87
2023/12/27 11:37:54;;;;;;;40.77;35.87;;;;;;;;;;5015429;28;20206;-87
2023/12/27 11:40:51;;;;;;;40.33;30.77;;;;;;;;;;5014564;28;20265;-87
2023/12/27 11:43:52;;;;;;;36.57;30.07;;;;;;;;;;5014279;28;20233;-87
2023/12/27 11:46:56;;;;;;;33.73;30.03;;;;;;;;;;5014365;28;20196;-87
2023/12/27 11:50:01;;;;;;;35.90;30.87;;;;;;;;;;5014653;28;20198;-87
2023/12/27 11:52:52;;;;;;;34.07;27.27;;;;;;;;;;5014486;28;20193;-87
2023/12/27 11:55:56;;;;;;;33.60;27.00;;;;;;;;;;5014786;28;20205;-87
2023/12/27 11:58:36;;;;;;;35.30;30.67;;;;;;;;;;5013830;28;20205;-87
2023/12/27 12:01:37;;;;;;;31.50;25.80;;;;;;;;;;5013417;28;20197;-87
2023/12/27 12:04:20;;;;;;;32.00;28.43;;;;;;;;;;5000854;28;20201;-87
2023/12/27 12:07:09;;;;;;;31.93;24.93;;;;;;;;;;5014323;28;20213;-87
2023/12/27 12:09:40;;;;;;;23.97;20.03;;;;;;;;;;5013876;28;20213;-87
2023/12/27 12:12:27;;;;;;;32.33;27.30;;;;;;;;;;5012155;28;20193;-88
2023/12/27 12:25:55;;;;;;;26.23;21.77;;;;;;;;;;6146837;22;1444494;-87
2023/12/27 12:28:28;;;;;;;24.23;18.33;;;;;;;;;;6166053;23;20227;-87
2023/12/27 12:31:07;;;;;;;25.03;22.40;;;;;;;;;;6166116;23;20180;-87
2023/12/27 12:33:41;;;;;;;25.27;20.27;;;;;;;;;;6164802;23;20247;-87
2023/12/27 12:36:31;;;;;;;25.10;22.40;;;;;;;;;;6165892;23;20228;-88
2023/12/27 12:39:09;;;;;;;20.93;18.67;;;;;;;;;;6165378;23;20206;-88
2023/12/27 12:41:40;;;;;;;22.60;20.17;;;;;;;;;;6165586;23;20184;-87
2023/12/27 12:44:18;;;;;;;23.00;20.70;;;;;;;;;;6165102;23;20211;-87
2023/12/27 12:46:52;;;;;;;19.47;12.97;;;;;;;;;;6192002;23;20182;-86
2023/12/27 12:49:25;;;;;;;22.07;20.07;;;;;;;;;;6165993;23;20184;-87
2023/12/27 12:52:01;;;;;;;17.60;14.43;;;;;;;;;;6165986;23;20180;-86
2023/12/27 12:54:48;;;;;;;20.60;18.53;;;;;;;;;;6191405;23;20193;-87
2023/12/27 12:57:27;;;;;;;22.10;16.83;;;;;;;;;;6165410;23;20175;-88
2023/12/27 13:00:05;;;;;;;19.63;17.83;;;;;;;;;;6165777;23;20182;-88
2023/12/27 13:02:33;;;;;;;18.50;16.70;;;;;;;;;;6191846;23;20172;-88
2023/12/27 13:05:06;;;;;;;18.50;16.60;;;;;;;;;;6161186;23;20267;-88
2023/12/27 13:07:42;;;;;;;16.80;15.17;;;;;;;;;;6135905;23;20192;-87
2023/12/27 13:10:11;;;;;;;17.47;15.77;;;;;;;;;;6136166;23;20178;-87
2023/12/27 13:12:46;;;;;;;18.33;14.13;;;;;;;;;;6161294;23;20202;-87
2023/12/27 13:15:20;;;;;;;15.70;13.40;;;;;;;;;;6135316;23;20201;-87
2023/12/27 13:17:49;;;;;;;16.23;14.53;;;;;;;;;;6136520;23;20203;-87
2023/12/27 13:20:29;;;;;;;18.13;16.27;;;;;;;;;;6135519;23;20176;-88
2023/12/27 13:23:01;;;;;;;16.47;14.33;;;;;;;;;;6135591;23;20168;-87
2023/12/27 13:25:30;;;;;;;18.33;14.80;;;;;;;;;;6131391;23;20236;-88
2023/12/27 13:28:04;;;;;;;20.03;16.13;;;;;;;;;;6129688;23;20196;-88
2023/12/27 13:30:44;;;;;;;19.10;16.43;;;;;;;;;;6129729;23;20176;-88
2023/12/27 13:33:13;;;;;;;20.90;16.27;;;;;;;;;;6129117;23;20174;-88
2023/12/27 13:35:42;;;;;;;15.70;14.20;;;;;;;;;;6154835;23;20193;-88
2023/12/27 13:38:14;;;;;;;12.53;10.77;;;;;;;;;;6129209;23;20181;-87
2023/12/27 13:40:47;;;;;;;19.20;15.53;;;;;;;;;;6129738;23;20178;-89
2023/12/27 13:43:22;;;;;;;17.40;15.63;;;;;;;;;;6129299;23;20180;-89
2023/12/27 13:45:51;;;;;;;18.27;16.53;;;;;;;;;;6128530;23;20177;-88
2023/12/27 13:48:26;;;;;;;19.10;17.47;;;;;;;;;;6155542;23;20183;-87
2023/12/27 13:50:55;;;;;;;16.83;15.07;;;;;;;;;;6129427;23;20180;-86
2023/12/27 13:53:31;;;;;;;17.03;15.43;;;;;;;;;;6128526;23;20181;-87
2023/12/27 13:56:01;;;;;;;16.63;14.93;;;;;;;;;;6128640;23;20178;-87
2023/12/27 13:58:35;;;;;;;14.97;13.57;;;;;;;;;;6128702;23;20228;-87
2023/12/27 14:01:08;;;;;;;12.43;11.20;;;;;;;;;;6129690;23;20265;-88
2023/12/27 14:03:38;;;;;;;17.67;16.17;;;;;;;;;;6128373;23;20182;-87
2023/12/27 14:06:27;;;;;;;18.07;14.43;;;;;;;;;;6127961;23;20287;-87
2023/12/27 14:08:56;;;;;;;16.60;15.10;;;;;;;;;;6155226;23;20183;-87
2023/12/27 14:11:29;;;;;;;16.97;14.20;;;;;;;;;;6128844;23;20209;-87
2023/12/27 14:14:00;;;;;;;16.73;15.23;;;;;;;;;;6128475;23;20178;-87
2023/12/27 14:16:41;;;;;;;15.83;14.17;;;;;;;;;;6128608;23;20181;-87
2023/12/27 14:19:18;;;;;;;16.47;14.87;;;;;;;;;;6129126;23;20183;-88
2023/12/27 14:21:48;;;;;;;16.70;15.03;;;;;;;;;;6129135;23;20182;-87
2023/12/27 14:24:23;;;;;;;14.07;12.57;;;;;;;;;;6128493;23;20184;-87
2023/12/27 14:26:53;;;;;;;15.57;14.20;;;;;;;;;;6128433;23;20181;-84
2023/12/27 14:29:26;;;;;;;12.27;11.00;;;;;;;;;;6129052;23;20228;-87
2023/12/27 14:32:04;;;;;;;12.87;11.67;;;;;;;;;;6128812;23;20176;-89
2023/12/27 14:34:44;;;;;;;14.10;12.60;;;;;;;;;;6127894;23;20272;-87
2023/12/27 14:37:20;;;;;;;11.97;10.67;;;;;;;;;;6131341;23;20255;-87
2023/12/27 14:39:57;;;;;;;13.67;12.37;;;;;;;;;;6155440;23;20177;-87
2023/12/27 14:42:28;;;;;;;11.23;10.23;;;;;;;;;;6128783;23;20185;-87
2023/12/27 14:45:03;;;;;;;12.20;11.00;;;;;;;;;;6128443;23;20180;-87
2023/12/27 14:47:32;;;;;;;14.67;9.30;;;;;;;;;;6154128;23;20241;-87
2023/12/27 14:50:07;;;;;;;11.80;10.43;;;;;;;;;;6154819;23;20187;-87
2023/12/27 14:52:38;;;;;;;13.97;12.53;;;;;;;;;;6128301;23;20224;-87
2023/12/27 14:55:08;;;;;;;12.07;10.87;;;;;;;;;;6126945;23;20201;-87
2023/12/27 14:57:49;;;;;;;10.90;9.53;;;;;;;;;;6153618;23;20169;-87
2023/12/27 15:00:22;;;;;;;11.43;10.30;;;;;;;;;;6128184;23;20204;-86
2023/12/27 15:02:56;;;;;;;12.17;10.93;;;;;;;;;;6128408;23;20177;-87
2023/12/27 15:05:31;;;;;;;12.37;11.03;;;;;;;;;;6128392;23;20196;-88
2023/12/27 15:08:09;;;;;;;14.60;11.27;;;;;;;;;;6127924;23;20177;-87
2023/12/27 15:10:40;;;;;;;11.73;8.97;;;;;;;;;;6128101;23;20260;-87
2023/12/27 15:13:19;;;;;;;13.67;10.60;;;;;;;;;;6128026;23;20180;-87
2023/12/27 15:15:49;;;;;;;13.20;12.00;;;;;;;;;;6128144;23;20209;-87
2023/12/27 15:18:30;;;;;;;14.17;10.70;;;;;;;;;;6127462;23;20177;-87
2023/12/27 15:21:09;;;;;;;11.57;9.17;;;;;;;;;;6128514;23;20181;-87
2023/12/27 15:23:38;;;;;;;12.40;11.30;;;;;;;;;;6128160;23;20180;-87
2023/12/27 15:26:09;;;;;;;13.50;9.30;;;;;;;;;;6102966;23;20231;-86
2023/12/27 15:28:41;;;;;;;11.77;9.97;;;;;;;;;;6098117;23;20221;-87
2023/12/27 15:31:20;;;;;;;11.30;10.20;;;;;;;;;;6098418;23;20181;-87